sensor_id;sensor_type;location;lat;lon;timestamp;pressure;altitude;pressure_sealevel;temperature;humidity
6224;BME280;3145;42.726;23.342;2023-01-30T00:01:31;95642.94;;;0.15;nan
6224;BME280;3145;42.726;23.342;2023-01-30T00:03:58;95658.03;;;0.33;nan
6224;BME280;3145;42.726;23.342;2023-01-30T00:06:25;95650.56;;;0.29;nan
6224;BME280;3145;42.726;23.342;2023-01-30T00:08:52;95648.69;;;0.31;nan
6224;BME280;3145;42.726;23.342;2023-01-30T00:11:20;95650.25;;;0.33;nan
6224;BME280;3145;42.726;23.342;2023-01-30T00:13:48;95649.75;;;0.28;nan
6224;BME280;3145;42.726;23.342;2023-01-30T00:16:16;95659.91;;;0.31;nan
6224;BME280;3145;42.726;23.342;2023-01-30T00:18:43;95646.63;;;0.23;nan
6224;BME280;3145;42.726;23.342;2023-01-30T00:21:11;95656.22;;;0.23;nan
6224;BME280;3145;42.726;23.342;2023-01-30T00:23:38;95651.78;;;0.12;nan
6224;BME280;3145;42.726;23.342;2023-01-30T00:26:06;95647.28;;;0.14;nan
6224;BME280;3145;42.726;23.342;2023-01-30T00:28:32;95645.66;;;0.13;nan
6224;BME280;3145;42.726;23.342;2023-01-30T00:30:59;95649.59;;;0.06;nan
6224;BME280;3145;42.726;23.342;2023-01-30T00:33:28;95629.28;;;0.00;nan
6224;BME280;3145;42.726;23.342;2023-01-30T00:35:55;95639.81;;;0.09;nan
6224;BME280;3145;42.726;23.342;2023-01-30T00:38:23;95633.53;;;0.01;nan
6224;BME280;3145;42.726;23.342;2023-01-30T00:40:50;95639.00;;;0.09;nan
6224;BME280;3145;42.726;23.342;2023-01-30T00:43:18;95632.78;;;0.12;nan
6224;BME280;3145;42.726;23.342;2023-01-30T00:46:07;95628.63;;;0.09;nan
6224;BME280;3145;42.726;23.342;2023-01-30T00:48:54;95633.59;;;0.12;nan
6224;BME280;3145;42.726;23.342;2023-01-30T00:51:21;95629.56;;;0.08;nan
6224;BME280;3145;42.726;23.342;2023-01-30T00:53:48;95629.28;;;0.00;nan
6224;BME280;3145;42.726;23.342;2023-01-30T00:56:14;95615.16;;;0.04;nan
6224;BME280;3145;42.726;23.342;2023-01-30T00:58:41;95629.56;;;0.08;nan
6224;BME280;3145;42.726;23.342;2023-01-30T01:01:08;95634.25;;;0.03;nan
6224;BME280;3145;42.726;23.342;2023-01-30T01:03:34;95629.03;;;0.03;nan
6224;BME280;3145;42.726;23.342;2023-01-30T01:06:03;95630.72;;;0.04;nan
6224;BME280;3145;42.726;23.342;2023-01-30T01:08:30;95628.13;;;0.04;nan
6224;BME280;3145;42.726;23.342;2023-01-30T01:10:56;95626.78;;;-0.02;nan
6224;BME280;3145;42.726;23.342;2023-01-30T01:13:23;95618.72;;;-0.10;nan
6224;BME280;3145;42.726;23.342;2023-01-30T01:15:50;95627.41;;;0.02;nan
6224;BME280;3145;42.726;23.342;2023-01-30T01:18:16;95620.03;;;-0.04;nan
6224;BME280;3145;42.726;23.342;2023-01-30T01:20:43;95617.00;;;0.02;nan
6224;BME280;3145;42.726;23.342;2023-01-30T01:23:11;95617.22;;;-0.01;nan
6224;BME280;3145;42.726;23.342;2023-01-30T01:25:38;95619.31;;;-0.06;nan
6224;BME280;3145;42.726;23.342;2023-01-30T01:28:04;95616.22;;;-0.11;nan
6224;BME280;3145;42.726;23.342;2023-01-30T01:30:31;95612.47;;;-0.07;nan
6224;BME280;3145;42.726;23.342;2023-01-30T01:32:58;95616.41;;;-0.02;nan
6224;BME280;3145;42.726;23.342;2023-01-30T01:35:25;95612.56;;;0.04;nan
6224;BME280;3145;42.726;23.342;2023-01-30T01:37:52;95611.59;;;0.05;nan
6224;BME280;3145;42.726;23.342;2023-01-30T01:40:21;95613.47;;;0.03;nan
6224;BME280;3145;42.726;23.342;2023-01-30T01:43:14;95606.56;;;-0.09;nan
6224;BME280;3145;42.726;23.342;2023-01-30T01:45:42;95612.03;;;-0.01;nan
6224;BME280;3145;42.726;23.342;2023-01-30T01:48:13;95614.84;;;-0.04;nan
6224;BME280;3145;42.726;23.342;2023-01-30T01:50:46;95612.28;;;-0.17;nan
6224;BME280;3145;42.726;23.342;2023-01-30T01:53:16;95616.22;;;-0.11;nan
6224;BME280;3145;42.726;23.342;2023-01-30T01:55:47;95617.16;;;-0.12;nan
6224;BME280;3145;42.726;23.342;2023-01-30T01:58:17;95614.84;;;-0.04;nan
6224;BME280;3145;42.726;23.342;2023-01-30T02:00:47;95616.84;;;-0.08;nan
6224;BME280;3145;42.726;23.342;2023-01-30T02:03:18;95609.34;;;-0.12;nan
6224;BME280;3145;42.726;23.342;2023-01-30T02:05:49;95612.25;;;-0.04;nan
6224;BME280;3145;42.726;23.342;2023-01-30T02:08:18;95615.16;;;0.04;nan
6224;BME280;3145;42.726;23.342;2023-01-30T02:10:55;95610.16;;;0.01;nan
6224;BME280;3145;42.726;23.342;2023-01-30T02:13:24;95614.31;;;0.03;nan
6224;BME280;3145;42.726;23.342;2023-01-30T02:15:52;95612.56;;;0.04;nan
6224;BME280;3145;42.726;23.342;2023-01-30T02:18:19;95607.38;;;0.04;nan
6224;BME280;3145;42.726;23.342;2023-01-30T02:24:03;95605.38;;;0.08;nan
6224;BME280;3145;42.726;23.342;2023-01-30T02:26:58;95607.50;;;0.13;nan
6224;BME280;3145;42.726;23.342;2023-01-30T02:29:58;95609.28;;;0.13;nan
6224;BME280;3145;42.726;23.342;2023-01-30T02:32:33;95609.28;;;0.13;nan
6224;BME280;3145;42.726;23.342;2023-01-30T02:35:11;95608.44;;;0.13;nan
6224;BME280;3145;42.726;23.342;2023-01-30T02:37:51;95563.25;;;-0.09;nan
6224;BME280;3145;42.726;23.342;2023-01-30T02:40:34;95595.16;;;0.17;nan
6224;BME280;3145;42.726;23.342;2023-01-30T02:43:10;95599.28;;;0.20;nan
6224;BME280;3145;42.726;23.342;2023-01-30T02:45:43;95594.69;;;0.23;nan
6224;BME280;3145;42.726;23.342;2023-01-30T02:48:17;95587.25;;;0.19;nan
6224;BME280;3145;42.726;23.342;2023-01-30T02:50:52;95585.56;;;0.17;nan
6224;BME280;3145;42.726;23.342;2023-01-30T02:53:21;95586.88;;;0.12;nan
6224;BME280;3145;42.726;23.342;2023-01-30T02:55:48;95590.16;;;0.14;nan
6224;BME280;3145;42.726;23.342;2023-01-30T02:58:18;95586.25;;;0.08;nan
6224;BME280;3145;42.726;23.342;2023-01-30T03:01:13;95577.56;;;-0.03;nan
6224;BME280;3145;42.726;23.342;2023-01-30T03:03:59;95589.78;;;0.08;nan
6224;BME280;3145;42.726;23.342;2023-01-30T03:06:47;95595.69;;;0.09;nan
6224;BME280;3145;42.726;23.342;2023-01-30T03:09:23;95592.97;;;0.11;nan
6224;BME280;3145;42.726;23.342;2023-01-30T03:12:04;95569.31;;;0.03;nan
6224;BME280;3145;42.726;23.342;2023-01-30T03:14:38;95580.00;;;0.11;nan
6224;BME280;3145;42.726;23.342;2023-01-30T03:17:08;95585.84;;;0.02;nan
6224;BME280;3145;42.726;23.342;2023-01-30T03:19:37;95573.19;;;-0.03;nan
6224;BME280;3145;42.726;23.342;2023-01-30T03:22:04;95574.03;;;-0.02;nan
6224;BME280;3145;42.726;23.342;2023-01-30T03:24:30;95562.69;;;-0.01;nan
6224;BME280;3145;42.726;23.342;2023-01-30T03:27:01;95558.94;;;0.03;nan
6224;BME280;3145;42.726;23.342;2023-01-30T03:29:28;95531.94;;;-0.18;nan
6224;BME280;3145;42.726;23.342;2023-01-30T03:31:55;95554.75;;;-0.11;nan
6224;BME280;3145;42.726;23.342;2023-01-30T03:34:22;95551.09;;;-0.08;nan
6224;BME280;3145;42.726;23.342;2023-01-30T03:36:50;95562.41;;;-0.09;nan
6224;BME280;3145;42.726;23.342;2023-01-30T03:39:17;95561.16;;;-0.04;nan
6224;BME280;3145;42.726;23.342;2023-01-30T03:41:44;95554.31;;;-0.05;nan
6224;BME280;3145;42.726;23.342;2023-01-30T03:44:11;95554.53;;;-0.08;nan
6224;BME280;3145;42.726;23.342;2023-01-30T03:46:38;95555.13;;;-0.04;nan
6224;BME280;3145;42.726;23.342;2023-01-30T03:49:05;95555.78;;;-0.13;nan
6224;BME280;3145;42.726;23.342;2023-01-30T03:51:31;95545.41;;;-0.13;nan
6224;BME280;3145;42.726;23.342;2023-01-30T03:53:59;95542.00;;;-0.14;nan
6224;BME280;3145;42.726;23.342;2023-01-30T03:56:26;95544.91;;;-0.18;nan
6224;BME280;3145;42.726;23.342;2023-01-30T03:58:53;95547.31;;;-0.15;nan
6224;BME280;3145;42.726;23.342;2023-01-30T04:01:20;95543.31;;;-0.08;nan
6224;BME280;3145;42.726;23.342;2023-01-30T04:03:46;95550.50;;;-0.12;nan
6224;BME280;3145;42.726;23.342;2023-01-30T04:06:13;95535.41;;;-0.07;nan
6224;BME280;3145;42.726;23.342;2023-01-30T04:08:40;95532.66;;;-0.16;nan
6224;BME280;3145;42.726;23.342;2023-01-30T04:11:08;95542.72;;;-0.12;nan
6224;BME280;3145;42.726;23.342;2023-01-30T04:13:35;95532.59;;;-0.27;nan
6224;BME280;3145;42.726;23.342;2023-01-30T04:16:18;95543.97;;;-0.17;nan
6224;BME280;3145;42.726;23.342;2023-01-30T04:18:45;95548.84;;;-0.13;nan
6224;BME280;3145;42.726;23.342;2023-01-30T04:21:12;95542.81;;;-0.13;nan
6224;BME280;3145;42.726;23.342;2023-01-30T04:23:39;95531.44;;;-0.23;nan
6224;BME280;3145;42.726;23.342;2023-01-30T04:26:08;95536.53;;;-0.22;nan
6224;BME280;3145;42.726;23.342;2023-01-30T04:28:35;95539.25;;;-0.23;nan
6224;BME280;3145;42.726;23.342;2023-01-30T04:31:03;95531.88;;;-0.29;nan
6224;BME280;3145;42.726;23.342;2023-01-30T04:33:30;95539.25;;;-0.23;nan
6224;BME280;3145;42.726;23.342;2023-01-30T04:36:00;95546.56;;;-0.41;nan
6224;BME280;3145;42.726;23.342;2023-01-30T04:38:29;95539.66;;;-0.29;nan
6224;BME280;3145;42.726;23.342;2023-01-30T04:40:56;95524.31;;;-0.32;nan
6224;BME280;3145;42.726;23.342;2023-01-30T04:43:26;95527.63;;;-0.30;nan
6224;BME280;3145;42.726;23.342;2023-01-30T04:45:53;95543.19;;;-0.30;nan
6224;BME280;3145;42.726;23.342;2023-01-30T04:48:21;95523.09;;;-0.39;nan
6224;BME280;3145;42.726;23.342;2023-01-30T04:50:50;95529.06;;;-0.26;nan
6224;BME280;3145;42.726;23.342;2023-01-30T04:53:17;95517.47;;;-0.33;nan
6224;BME280;3145;42.726;23.342;2023-01-30T04:55:44;95509.97;;;-0.25;nan
6224;BME280;3145;42.726;23.342;2023-01-30T04:58:12;95515.50;;;-0.30;nan
6224;BME280;3145;42.726;23.342;2023-01-30T05:00:40;95495.38;;;-0.39;nan
6224;BME280;3145;42.726;23.342;2023-01-30T05:03:06;95516.59;;;-0.21;nan
6224;BME280;3145;42.726;23.342;2023-01-30T05:05:33;95518.22;;;-0.20;nan
6224;BME280;3145;42.726;23.342;2023-01-30T05:08:00;95511.78;;;-0.15;nan
6224;BME280;3145;42.726;23.342;2023-01-30T05:10:27;95510.72;;;-0.12;nan
6224;BME280;3145;42.726;23.342;2023-01-30T05:12:53;95507.63;;;-0.17;nan
6224;BME280;3145;42.726;23.342;2023-01-30T05:15:20;95514.31;;;-0.02;nan
6224;BME280;3145;42.726;23.342;2023-01-30T05:17:48;95509.16;;;0.44;nan
6224;BME280;3145;42.726;23.342;2023-01-30T05:20:15;95516.19;;;0.20;nan
6224;BME280;3145;42.726;23.342;2023-01-30T05:22:41;95520.94;;;0.02;nan
6224;BME280;3145;42.726;23.342;2023-01-30T05:25:09;95519.84;;;-0.07;nan
6224;BME280;3145;42.726;23.342;2023-01-30T05:27:36;95522.94;;;-0.02;nan
6224;BME280;3145;42.726;23.342;2023-01-30T05:30:03;95530.13;;;-0.05;nan
6224;BME280;3145;42.726;23.342;2023-01-30T05:32:30;95524.22;;;-0.07;nan
6224;BME280;3145;42.726;23.342;2023-01-30T05:34:58;95526.75;;;-0.18;nan
6224;BME280;3145;42.726;23.342;2023-01-30T05:37:25;95508.09;;;-0.23;nan
6224;BME280;3145;42.726;23.342;2023-01-30T05:39:52;95526.09;;;-0.09;nan
6224;BME280;3145;42.726;23.342;2023-01-30T05:42:18;95535.53;;;-0.08;nan
6224;BME280;3145;42.726;23.342;2023-01-30T05:44:45;95527.09;;;0.01;nan
6224;BME280;3145;42.726;23.342;2023-01-30T05:47:12;95528.13;;;-0.02;nan
6224;BME280;3145;42.726;23.342;2023-01-30T05:49:38;95530.00;;;-0.04;nan
6224;BME280;3145;42.726;23.342;2023-01-30T05:52:06;95530.50;;;0.01;nan
6224;BME280;3145;42.726;23.342;2023-01-30T05:54:33;95535.81;;;0.00;nan
6224;BME280;3145;42.726;23.342;2023-01-30T05:57:00;95533.72;;;0.05;nan
6224;BME280;3145;42.726;23.342;2023-01-30T05:59:27;95527.31;;;-0.02;nan
6224;BME280;3145;42.726;23.342;2023-01-30T06:01:54;95532.16;;;-0.21;nan
6224;BME280;3145;42.726;23.342;2023-01-30T06:04:20;95531.94;;;-0.18;nan
6224;BME280;3145;42.726;23.342;2023-01-30T06:06:48;95535.97;;;-0.14;nan
6224;BME280;3145;42.726;23.342;2023-01-30T06:09:16;95540.59;;;-0.07;nan
6224;BME280;3145;42.726;23.342;2023-01-30T06:11:43;95535.69;;;0.01;nan
6224;BME280;3145;42.726;23.342;2023-01-30T06:14:09;95547.69;;;-0.09;nan
6224;BME280;3145;42.726;23.342;2023-01-30T06:16:36;95492.19;;;-0.42;nan
6224;BME280;3145;42.726;23.342;2023-01-30T06:19:03;95535.75;;;-0.11;nan
6224;BME280;3145;42.726;23.342;2023-01-30T06:21:30;95528.78;;;-0.11;nan
6224;BME280;3145;42.726;23.342;2023-01-30T06:23:56;95533.28;;;-0.13;nan
6224;BME280;3145;42.726;23.342;2023-01-30T06:26:25;95530.72;;;-0.25;nan
6224;BME280;3145;42.726;23.342;2023-01-30T06:28:51;95528.63;;;-0.20;nan
6224;BME280;3145;42.726;23.342;2023-01-30T06:31:18;95529.25;;;-0.17;nan
6224;BME280;3145;42.726;23.342;2023-01-30T06:33:45;95535.03;;;-0.13;nan
6224;BME280;3145;42.726;23.342;2023-01-30T06:36:13;95525.91;;;-0.19;nan
6224;BME280;3145;42.726;23.342;2023-01-30T06:38:40;95529.84;;;-0.13;nan
6224;BME280;3145;42.726;23.342;2023-01-30T06:41:07;95534.03;;;-0.23;nan
6224;BME280;3145;42.726;23.342;2023-01-30T06:43:35;95459.75;;;-0.60;nan
6224;BME280;3145;42.726;23.342;2023-01-30T06:46:01;95521.19;;;-0.25;nan
6224;BME280;3145;42.726;23.342;2023-01-30T06:48:28;95524.47;;;-0.23;nan
6224;BME280;3145;42.726;23.342;2023-01-30T06:50:55;95520.72;;;-0.19;nan
6224;BME280;3145;42.726;23.342;2023-01-30T06:53:21;95540.00;;;-0.10;nan
6224;BME280;3145;42.726;23.342;2023-01-30T06:55:54;95539.53;;;-0.15;nan
6224;BME280;3145;42.726;23.342;2023-01-30T06:58:21;95517.50;;;-0.10;nan
6224;BME280;3145;42.726;23.342;2023-01-30T07:00:49;95545.75;;;0.06;nan
6224;BME280;3145;42.726;23.342;2023-01-30T07:03:16;95541.81;;;0.00;nan
6224;BME280;3145;42.726;23.342;2023-01-30T07:05:44;95542.44;;;0.04;nan
6224;BME280;3145;42.726;23.342;2023-01-30T07:08:12;95546.22;;;0.00;nan
6224;BME280;3145;42.726;23.342;2023-01-30T07:10:39;95541.44;;;-0.06;nan
6224;BME280;3145;42.726;23.342;2023-01-30T07:13:06;95551.00;;;-0.07;nan
6224;BME280;3145;42.726;23.342;2023-01-30T07:15:33;95545.59;;;-0.04;nan
6224;BME280;3145;42.726;23.342;2023-01-30T07:18:01;95550.81;;;-0.16;nan
6224;BME280;3145;42.726;23.342;2023-01-30T07:20:28;95548.50;;;-0.08;nan
6224;BME280;3145;42.726;23.342;2023-01-30T07:22:56;95546.03;;;-0.10;nan
6224;BME280;3145;42.726;23.342;2023-01-30T07:25:24;95531.94;;;-0.18;nan
6224;BME280;3145;42.726;23.342;2023-01-30T07:27:52;95550.38;;;-0.10;nan
6224;BME280;3145;42.726;23.342;2023-01-30T07:30:19;95556.19;;;-0.07;nan
6224;BME280;3145;42.726;23.342;2023-01-30T07:32:48;95547.53;;;-0.18;nan
6224;BME280;3145;42.726;23.342;2023-01-30T07:35:16;95553.47;;;-0.05;nan
6224;BME280;3145;42.726;23.342;2023-01-30T07:37:44;95564.59;;;-0.03;nan
6224;BME280;3145;42.726;23.342;2023-01-30T07:40:12;95553.94;;;-0.11;nan
6224;BME280;3145;42.726;23.342;2023-01-30T07:42:39;95568.41;;;0.04;nan
6224;BME280;3145;42.726;23.342;2023-01-30T07:45:07;95563.59;;;0.11;nan
6224;BME280;3145;42.726;23.342;2023-01-30T07:47:34;95559.47;;;0.08;nan
6224;BME280;3145;42.726;23.342;2023-01-30T07:50:01;95552.06;;;0.15;nan
6224;BME280;3145;42.726;23.342;2023-01-30T07:52:29;95471.50;;;-0.31;nan
6224;BME280;3145;42.726;23.342;2023-01-30T07:54:56;95548.88;;;0.22;nan
6224;BME280;3145;42.726;23.342;2023-01-30T07:57:22;95544.44;;;0.24;nan
6224;BME280;3145;42.726;23.342;2023-01-30T07:59:49;95542.47;;;0.15;nan
6224;BME280;3145;42.726;23.342;2023-01-30T08:02:16;95538.75;;;0.30;nan
6224;BME280;3145;42.726;23.342;2023-01-30T08:04:42;95537.13;;;0.29;nan
6224;BME280;3145;42.726;23.342;2023-01-30T08:07:09;95531.81;;;0.31;nan
6224;BME280;3145;42.726;23.342;2023-01-30T08:09:37;95531.09;;;0.29;nan
6224;BME280;3145;42.726;23.342;2023-01-30T08:12:04;95531.34;;;0.37;nan
6224;BME280;3145;42.726;23.342;2023-01-30T08:14:31;95525.81;;;0.41;nan
6224;BME280;3145;42.726;23.342;2023-01-30T08:16:57;95527.47;;;0.42;nan
6224;BME280;3145;42.726;23.342;2023-01-30T08:19:24;95531.72;;;0.43;nan
6224;BME280;3145;42.726;23.342;2023-01-30T08:21:51;95524.59;;;0.34;nan
6224;BME280;3145;42.726;23.342;2023-01-30T08:24:17;95515.28;;;0.32;nan
6224;BME280;3145;42.726;23.342;2023-01-30T08:26:48;95516.94;;;0.33;nan
6224;BME280;3145;42.726;23.342;2023-01-30T08:29:14;95518.25;;;0.38;nan
6224;BME280;3145;42.726;23.342;2023-01-30T08:31:41;95521.06;;;0.35;nan
6224;BME280;3145;42.726;23.342;2023-01-30T08:34:08;95512.78;;;0.30;nan
6224;BME280;3145;42.726;23.342;2023-01-30T08:36:35;95511.72;;;0.33;nan
6224;BME280;3145;42.726;23.342;2023-01-30T08:39:02;95508.59;;;0.40;nan
6224;BME280;3145;42.726;23.342;2023-01-30T08:41:28;95511.03;;;0.42;nan
6224;BME280;3145;42.726;23.342;2023-01-30T08:43:56;95498.16;;;0.29;nan
6224;BME280;3145;42.726;23.342;2023-01-30T08:46:23;95504.81;;;0.44;nan
6224;BME280;3145;42.726;23.342;2023-01-30T08:48:50;95500.28;;;0.35;nan
6224;BME280;3145;42.726;23.342;2023-01-30T08:51:17;95506.94;;;0.50;nan
6224;BME280;3145;42.726;23.342;2023-01-30T08:53:44;95496.81;;;0.58;nan
6224;BME280;3145;42.726;23.342;2023-01-30T08:56:10;95498.22;;;0.62;nan
6224;BME280;3145;42.726;23.342;2023-01-30T08:58:37;95493.03;;;0.73;nan
6224;BME280;3145;42.726;23.342;2023-01-30T09:01:06;95494.94;;;0.82;nan
6224;BME280;3145;42.726;23.342;2023-01-30T09:03:33;95495.56;;;0.86;nan
6224;BME280;3145;42.726;23.342;2023-01-30T09:06:00;95480.75;;;0.86;nan
6224;BME280;3145;42.726;23.342;2023-01-30T09:08:26;95477.47;;;0.84;nan
6224;BME280;3145;42.726;23.342;2023-01-30T09:10:56;95476.28;;;0.77;nan
6224;BME280;3145;42.726;23.342;2023-01-30T09:13:23;95481.25;;;0.80;nan
6224;BME280;3145;42.726;23.342;2023-01-30T09:15:50;95473.44;;;0.69;nan
6224;BME280;3145;42.726;23.342;2023-01-30T09:18:19;95485.22;;;0.62;nan
6224;BME280;3145;42.726;23.342;2023-01-30T09:20:45;95480.06;;;0.73;nan
6224;BME280;3145;42.726;23.342;2023-01-30T09:23:12;95482.19;;;0.68;nan
6224;BME280;3145;42.726;23.342;2023-01-30T09:25:39;95473.69;;;0.77;nan
6224;BME280;3145;42.726;23.342;2023-01-30T09:28:06;95478.75;;;0.79;nan
6224;BME280;3145;42.726;23.342;2023-01-30T09:30:33;95481.47;;;0.77;nan
6224;BME280;3145;42.726;23.342;2023-01-30T09:33:00;95482.44;;;0.76;nan
6224;BME280;3145;42.726;23.342;2023-01-30T09:35:29;95453.59;;;0.68;nan
6224;BME280;3145;42.726;23.342;2023-01-30T09:37:55;95476.63;;;0.84;nan
6224;BME280;3145;42.726;23.342;2023-01-30T09:40:26;95462.09;;;0.81;nan
6224;BME280;3145;42.726;23.342;2023-01-30T09:43:18;95470.84;;;0.80;nan
6224;BME280;3145;42.726;23.342;2023-01-30T09:45:59;95461.38;;;0.79;nan
6224;BME280;3145;42.726;23.342;2023-01-30T09:48:35;95455.13;;;0.93;nan
6224;BME280;3145;42.726;23.342;2023-01-30T09:51:21;95457.13;;;0.78;nan
6224;BME280;3145;42.726;23.342;2023-01-30T09:54:13;95452.75;;;0.79;nan
6224;BME280;3145;42.726;23.342;2023-01-30T09:56:41;95452.63;;;0.91;nan
6224;BME280;3145;42.726;23.342;2023-01-30T09:59:16;95463.84;;;0.81;nan
6224;BME280;3145;42.726;23.342;2023-01-30T10:01:50;95440.22;;;0.73;nan
6224;BME280;3145;42.726;23.342;2023-01-30T10:04:24;95450.72;;;0.71;nan
6224;BME280;3145;42.726;23.342;2023-01-30T10:06:59;95438.91;;;0.67;nan
6224;BME280;3145;42.726;23.342;2023-01-30T10:09:34;95439.41;;;0.72;nan
6224;BME280;3145;42.726;23.342;2023-01-30T10:12:21;95426.53;;;0.60;nan
6224;BME280;3145;42.726;23.342;2023-01-30T10:15:05;95409.41;;;0.68;nan
6224;BME280;3145;42.726;23.342;2023-01-30T10:17:45;95411.41;;;0.65;nan
6224;BME280;3145;42.726;23.342;2023-01-30T10:20:39;95410.81;;;0.72;nan
6224;BME280;3145;42.726;23.342;2023-01-30T10:26:09;95398.53;;;0.74;nan
6224;BME280;3145;42.726;23.342;2023-01-30T10:28:39;95401.13;;;0.85;nan
6224;BME280;3145;42.726;23.342;2023-01-30T10:31:09;95398.63;;;0.95;nan
6224;BME280;3145;42.726;23.342;2023-01-30T10:33:40;95378.19;;;0.90;nan
6224;BME280;3145;42.726;23.342;2023-01-30T10:36:11;95382.19;;;1.05;nan
6224;BME280;3145;42.726;23.342;2023-01-30T10:38:43;95375.97;;;0.86;nan
6224;BME280;3145;42.726;23.342;2023-01-30T10:41:19;95372.03;;;0.91;nan
6224;BME280;3145;42.726;23.342;2023-01-30T10:43:56;95366.38;;;0.86;nan
6224;BME280;3145;42.726;23.342;2023-01-30T10:46:37;95364.16;;;0.82;nan
6224;BME280;3145;42.726;23.342;2023-01-30T10:49:12;95357.38;;;0.90;nan
6224;BME280;3145;42.726;23.342;2023-01-30T10:51:47;95352.47;;;0.65;nan
6224;BME280;3145;42.726;23.342;2023-01-30T10:54:23;95348.91;;;0.66;nan
6224;BME280;3145;42.726;23.342;2023-01-30T10:56:56;95344.06;;;0.73;nan
6224;BME280;3145;42.726;23.342;2023-01-30T10:59:33;95338.16;;;0.82;nan
6224;BME280;3145;42.726;23.342;2023-01-30T11:02:19;95328.09;;;0.88;nan
6224;BME280;3145;42.726;23.342;2023-01-30T11:04:55;95320.41;;;0.87;nan
6224;BME280;3145;42.726;23.342;2023-01-30T11:07:22;95321.44;;;0.95;nan
6224;BME280;3145;42.726;23.342;2023-01-30T11:09:50;95305.16;;;0.93;nan
6224;BME280;3145;42.726;23.342;2023-01-30T11:12:17;95304.25;;;1.15;nan
6224;BME280;3145;42.726;23.342;2023-01-30T11:14:52;95279.13;;;1.04;nan
6224;BME280;3145;42.726;23.342;2023-01-30T11:17:20;95297.78;;;1.09;nan
6224;BME280;3145;42.726;23.342;2023-01-30T11:19:54;95291.84;;;1.07;nan
6224;BME280;3145;42.726;23.342;2023-01-30T11:22:23;95284.31;;;1.04;nan
6224;BME280;3145;42.726;23.342;2023-01-30T11:25:03;95280.97;;;1.13;nan
6224;BME280;3145;42.726;23.342;2023-01-30T11:27:32;95276.28;;;1.28;nan
6224;BME280;3145;42.726;23.342;2023-01-30T11:30:05;95277.31;;;1.36;nan
6224;BME280;3145;42.726;23.342;2023-01-30T11:32:32;95273.13;;;1.45;nan
6224;BME280;3145;42.726;23.342;2023-01-30T11:35:10;95269.97;;;1.41;nan
6224;BME280;3145;42.726;23.342;2023-01-30T11:37:44;95265.19;;;1.46;nan
6224;BME280;3145;42.726;23.342;2023-01-30T11:40:21;95259.31;;;1.44;nan
6224;BME280;3145;42.726;23.342;2023-01-30T11:42:51;95251.06;;;1.39;nan
6224;BME280;3145;42.726;23.342;2023-01-30T11:45:18;95243.50;;;1.36;nan
6224;BME280;3145;42.726;23.342;2023-01-30T11:47:49;95231.50;;;1.24;nan
6224;BME280;3145;42.726;23.342;2023-01-30T11:50:17;95230.97;;;1.30;nan
6224;BME280;3145;42.726;23.342;2023-01-30T11:52:46;95230.59;;;1.14;nan
6224;BME280;3145;42.726;23.342;2023-01-30T11:55:17;95235.03;;;1.23;nan
6224;BME280;3145;42.726;23.342;2023-01-30T11:57:48;95221.78;;;1.26;nan
6224;BME280;3145;42.726;23.342;2023-01-30T12:00:20;95199.03;;;1.39;nan
6224;BME280;3145;42.726;23.342;2023-01-30T12:02:49;95204.47;;;1.36;nan
6224;BME280;3145;42.726;23.342;2023-01-30T12:05:23;95200.19;;;1.56;nan
6224;BME280;3145;42.726;23.342;2023-01-30T12:07:51;95198.81;;;1.52;nan
6224;BME280;3145;42.726;23.342;2023-01-30T12:10:29;95198.63;;;1.64;nan
6224;BME280;3145;42.726;23.342;2023-01-30T12:12:59;95191.13;;;1.50;nan
6224;BME280;3145;42.726;23.342;2023-01-30T12:15:30;95188.34;;;1.42;nan
6224;BME280;3145;42.726;23.342;2023-01-30T12:18:02;95179.41;;;1.35;nan
6224;BME280;3145;42.726;23.342;2023-01-30T12:20:44;95181.38;;;1.22;nan
6224;BME280;3145;42.726;23.342;2023-01-30T12:23:17;95172.34;;;1.26;nan
6224;BME280;3145;42.726;23.342;2023-01-30T12:25:55;95154.28;;;1.04;nan
6224;BME280;3145;42.726;23.342;2023-01-30T12:28:28;95161.09;;;1.16;nan
6224;BME280;3145;42.726;23.342;2023-01-30T12:31:03;95149.19;;;1.23;nan
6224;BME280;3145;42.726;23.342;2023-01-30T12:33:32;95154.09;;;1.37;nan
6224;BME280;3145;42.726;23.342;2023-01-30T12:36:08;95152.69;;;1.33;nan
6224;BME280;3145;42.726;23.342;2023-01-30T12:38:55;95157.91;;;1.33;nan
6224;BME280;3145;42.726;23.342;2023-01-30T12:41:33;95154.31;;;1.34;nan
6224;BME280;3145;42.726;23.342;2023-01-30T12:44:12;95151.53;;;1.26;nan
6224;BME280;3145;42.726;23.342;2023-01-30T12:46:54;95149.41;;;1.31;nan
6224;BME280;3145;42.726;23.342;2023-01-30T12:49:34;95144.22;;;1.31;nan
6224;BME280;3145;42.726;23.342;2023-01-30T12:52:24;95134.59;;;1.32;nan
6224;BME280;3145;42.726;23.342;2023-01-30T12:54:58;95130.25;;;1.32;nan
6224;BME280;3145;42.726;23.342;2023-01-30T12:57:34;95139.72;;;1.43;nan
6224;BME280;3145;42.726;23.342;2023-01-30T13:00:28;95133.06;;;1.50;nan
6224;BME280;3145;42.726;23.342;2023-01-30T13:03:18;95131.72;;;1.55;nan
6224;BME280;3145;42.726;23.342;2023-01-30T13:05:51;95129.97;;;1.65;nan
6224;BME280;3145;42.726;23.342;2023-01-30T13:08:31;95125.38;;;1.48;nan
6224;BME280;3145;42.726;23.342;2023-01-30T13:11:07;95139.34;;;1.47;nan
6224;BME280;3145;42.726;23.342;2023-01-30T13:13:43;95111.06;;;1.33;nan
6224;BME280;3145;42.726;23.342;2023-01-30T13:16:17;95121.56;;;1.52;nan
6224;BME280;3145;42.726;23.342;2023-01-30T13:18:52;95108.38;;;1.44;nan
6224;BME280;3145;42.726;23.342;2023-01-30T13:21:25;95123.09;;;1.55;nan
6224;BME280;3145;42.726;23.342;2023-01-30T13:24:06;95112.28;;;1.29;nan
6224;BME280;3145;42.726;23.342;2023-01-30T13:26:40;95114.63;;;1.32;nan
6224;BME280;3145;42.726;23.342;2023-01-30T13:29:12;95100.16;;;1.39;nan
6224;BME280;3145;42.726;23.342;2023-01-30T13:31:47;95101.91;;;1.39;nan
6224;BME280;3145;42.726;23.342;2023-01-30T13:34:23;95084.13;;;1.44;nan
6224;BME280;3145;42.726;23.342;2023-01-30T13:36:54;95043.13;;;1.27;nan
6224;BME280;3145;42.726;23.342;2023-01-30T13:39:32;95091.19;;;1.62;nan
6224;BME280;3145;42.726;23.342;2023-01-30T13:42:03;95092.84;;;1.63;nan
6224;BME280;3145;42.726;23.342;2023-01-30T13:44:33;95084.91;;;1.74;nan
6224;BME280;3145;42.726;23.342;2023-01-30T13:47:09;95092.28;;;1.60;nan
6224;BME280;3145;42.726;23.342;2023-01-30T13:49:42;95081.88;;;1.60;nan
6224;BME280;3145;42.726;23.342;2023-01-30T13:52:19;95065.38;;;1.40;nan
6224;BME280;3145;42.726;23.342;2023-01-30T13:54:56;95084.25;;;1.42;nan
6224;BME280;3145;42.726;23.342;2023-01-30T13:57:39;95071.38;;;1.31;nan
6224;BME280;3145;42.726;23.342;2023-01-30T14:00:25;95075.44;;;1.24;nan
6224;BME280;3145;42.726;23.342;2023-01-30T14:03:22;95085.88;;;1.34;nan
6224;BME280;3145;42.726;23.342;2023-01-30T14:06:05;95075.59;;;1.32;nan